Terminal Aerodrome Forecast
Issued by NWS St Louis, MO

Home | Current Version | Previous Version | Text Only | Print | Product List | Glossary On
Versions: 1 2 3 4 5 6 7 8 9 10 11 12 13 14 15 16 17 18 19 20
365
FTUS43 KLSX 161722
TAFCOU
TAF
KCOU 161722Z 1618/1718 34011KT P6SM SCT250
     FM170100 06006KT P6SM FEW250
     FM170600 12005KT P6SM SCT250
     FM171100 15006KT P6SM BKN100
     FM171600 19009KT P6SM OVC035
     FM171700 21010KT P6SM BKN020=

USA.gov is the U.S. government's official web portal to all federal, state and local government web resources and services.